createdAt,value
2023-03-05T00:00:00.516Z,101710
2023-03-05T00:01:08.906Z,101710
2023-03-05T00:02:00.457Z,101710
2023-03-05T00:03:00.531Z,101710
2023-03-05T00:04:01.279Z,101710
2023-03-05T00:05:00.476Z,101713
2023-03-05T00:06:00.466Z,101713
2023-03-05T00:07:00.592Z,101713
2023-03-05T00:08:00.556Z,101713
2023-03-05T00:09:01.069Z,101713
2023-03-05T00:10:01.021Z,101706
2023-03-05T00:11:03.169Z,101706
2023-03-05T00:12:00.464Z,101706
2023-03-05T00:13:00.489Z,101706
2023-03-05T00:14:01.239Z,101706
2023-03-05T00:15:00.514Z,101703
2023-03-05T00:16:02.684Z,101703
2023-03-05T00:17:00.462Z,101703
2023-03-05T00:18:00.477Z,101703
2023-03-05T00:19:00.588Z,101703
2023-03-05T00:20:02.342Z,101706
2023-03-05T00:21:00.606Z,101706
2023-03-05T00:22:00.480Z,101706
2023-03-05T00:23:00.465Z,101706
2023-03-05T00:24:02.988Z,101706
2023-03-05T00:25:00.563Z,101703
2023-03-05T00:26:00.826Z,101703
2023-03-05T00:27:00.632Z,101703
2023-03-05T00:28:00.494Z,101703
2023-03-05T00:29:00.506Z,101703
2023-03-05T00:30:00.509Z,101708
2023-03-05T00:31:00.941Z,101708
2023-03-05T00:32:00.554Z,101708
2023-03-05T00:33:00.792Z,101708
2023-03-05T00:34:02.107Z,101708
2023-03-05T00:35:00.457Z,101700
2023-03-05T00:36:04.379Z,101700
2023-03-05T00:37:00.730Z,101700
2023-03-05T00:38:00.466Z,101700
2023-03-05T00:39:00.488Z,101700
2023-03-05T00:40:00.576Z,101699
2023-03-05T00:41:00.936Z,101699
2023-03-05T00:42:00.561Z,101699
2023-03-05T00:43:00.495Z,101699
2023-03-05T00:44:00.485Z,101699
2023-03-05T00:45:00.469Z,101690
2023-03-05T00:46:00.492Z,101690
2023-03-05T00:47:00.470Z,101690
2023-03-05T00:48:00.632Z,101690
2023-03-05T00:49:00.496Z,101690
2023-03-05T00:50:01.331Z,101683
2023-03-05T00:51:00.490Z,101683
2023-03-05T00:52:00.479Z,101683
2023-03-05T00:53:00.511Z,101683
2023-03-05T00:54:00.479Z,101683
2023-03-05T00:55:00.469Z,101678
2023-03-05T00:56:00.593Z,101678
2023-03-05T00:57:00.487Z,101678
2023-03-05T00:58:00.750Z,101678
2023-03-05T00:59:00.636Z,101678
2023-03-05T01:00:00.473Z,101667
2023-03-05T01:01:01.109Z,101667
2023-03-05T01:02:00.494Z,101667
2023-03-05T01:03:00.532Z,101667
2023-03-05T01:04:00.514Z,101667
2023-03-05T01:05:00.616Z,101665
2023-03-05T01:06:03.272Z,101665
2023-03-05T01:07:00.482Z,101665
2023-03-05T01:08:00.534Z,101665
2023-03-05T01:09:00.584Z,101665
2023-03-05T01:10:00.465Z,101658
2023-03-05T01:11:01.083Z,101658
2023-03-05T01:12:00.453Z,101658
2023-03-05T01:13:00.556Z,101658
2023-03-05T01:14:00.460Z,101658
2023-03-05T01:15:00.728Z,101650
2023-03-05T01:16:00.529Z,101650
2023-03-05T01:17:00.906Z,101650
2023-03-05T01:18:00.479Z,101650
2023-03-05T01:19:00.535Z,101650
2023-03-05T01:20:00.535Z,101643
2023-03-05T01:21:00.488Z,101643
2023-03-05T01:22:00.471Z,101643
2023-03-05T01:23:00.456Z,101643
2023-03-05T01:24:00.717Z,101643
2023-03-05T01:25:00.457Z,101636
2023-03-05T01:26:00.480Z,101636
2023-03-05T01:27:00.489Z,101636
2023-03-05T01:28:00.465Z,101636
2023-03-05T01:29:00.774Z,101636
2023-03-05T01:30:00.498Z,101634
2023-03-05T01:31:00.510Z,101634
2023-03-05T01:32:00.509Z,101634
2023-03-05T01:33:00.488Z,101634
2023-03-05T01:34:00.520Z,101634
2023-03-05T01:35:01.570Z,101632
2023-03-05T01:36:00.524Z,101632
2023-03-05T01:37:00.477Z,101632
2023-03-05T01:38:00.528Z,101632
2023-03-05T01:39:00.449Z,101632
2023-03-05T01:40:00.476Z,101625
2023-03-05T01:41:00.558Z,101625
2023-03-05T01:42:00.589Z,101625
2023-03-05T01:43:07.621Z,101625
2023-03-05T01:44:00.549Z,101625
2023-03-05T01:45:09.298Z,101622
2023-03-05T01:46:10.409Z,101622
2023-03-05T01:47:00.456Z,101622
2023-03-05T01:48:00.493Z,101622
2023-03-05T01:49:10.345Z,101617
2023-03-05T01:50:00.591Z,101617
2023-03-05T01:51:00.478Z,101617
2023-03-05T01:52:00.451Z,101617
2023-03-05T01:53:02.029Z,101617
2023-03-05T01:54:00.843Z,101617
2023-03-05T01:55:02.584Z,101613
2023-03-05T01:56:00.531Z,101613
2023-03-05T01:57:03.765Z,101613
2023-03-05T01:58:03.902Z,101613
2023-03-05T01:59:00.926Z,101613
2023-03-05T02:00:04.782Z,101605
2023-03-05T02:01:00.890Z,101605
2023-03-05T02:02:00.522Z,101605
2023-03-05T02:03:02.656Z,101605
2023-03-05T02:04:01.288Z,101605
2023-03-05T02:05:02.935Z,101600
2023-03-05T02:06:00.437Z,101600
2023-03-05T02:07:01.007Z,101600
2023-03-05T02:08:02.530Z,101600
2023-03-05T02:09:00.452Z,101600
2023-03-05T02:10:00.464Z,101600
2023-03-05T02:11:00.565Z,101600
2023-03-05T02:12:00.508Z,101600
2023-03-05T02:13:01.893Z,101600
2023-03-05T02:14:01.382Z,101600
2023-03-05T02:15:00.446Z,101591
2023-03-05T02:16:00.644Z,101591
2023-03-05T02:17:00.475Z,101591
2023-03-05T02:18:00.551Z,101591
2023-03-05T02:19:03.058Z,101591
2023-03-05T02:20:04.707Z,101585
2023-03-05T02:21:00.555Z,101585
2023-03-05T02:22:00.433Z,101585
2023-03-05T02:23:00.541Z,101585
2023-03-05T02:24:00.459Z,101585
2023-03-05T02:25:00.466Z,101575
2023-03-05T02:26:00.461Z,101575
2023-03-05T02:27:01.716Z,101575
2023-03-05T02:28:04.980Z,101575
2023-03-05T02:29:01.969Z,101575
2023-03-05T02:30:01.641Z,101571
2023-03-05T02:31:00.500Z,101571
2023-03-05T02:32:02.068Z,101571
2023-03-05T02:33:00.656Z,101571
2023-03-05T02:34:00.444Z,101571
2023-03-05T02:35:00.431Z,101559
2023-03-05T02:36:00.573Z,101559
2023-03-05T02:37:00.856Z,101559
2023-03-05T02:38:00.447Z,101559
2023-03-05T02:39:00.446Z,101559
2023-03-05T02:40:00.579Z,101560
2023-03-05T02:41:00.440Z,101560
2023-03-05T02:42:00.484Z,101560
2023-03-05T02:43:00.478Z,101560
2023-03-05T02:44:00.509Z,101560
2023-03-05T02:45:01.219Z,101549
2023-03-05T02:46:00.582Z,101549
2023-03-05T02:47:00.570Z,101549
2023-03-05T02:48:00.515Z,101549
2023-03-05T02:49:00.488Z,101549
2023-03-05T02:50:00.540Z,101547
2023-03-05T02:51:01.669Z,101547
2023-03-05T02:52:00.454Z,101547
2023-03-05T02:53:00.448Z,101547
2023-03-05T02:54:00.456Z,101547
2023-03-05T02:55:00.467Z,101537
2023-03-05T02:56:00.444Z,101537
2023-03-05T02:57:00.449Z,101537
2023-03-05T02:58:00.597Z,101537
2023-03-05T02:59:00.471Z,101537
2023-03-05T03:00:00.516Z,101538
2023-03-05T03:01:00.551Z,101538
2023-03-05T03:02:00.489Z,101538
2023-03-05T03:03:00.493Z,101538
2023-03-05T03:04:00.466Z,101538
2023-03-05T03:05:00.425Z,101530
2023-03-05T03:06:00.470Z,101530
2023-03-05T03:07:00.415Z,101530
2023-03-05T03:08:00.478Z,101530
2023-03-05T03:09:00.454Z,101530
2023-03-05T03:10:00.458Z,101526
2023-03-05T03:11:08.722Z,101526
2023-03-05T03:12:00.867Z,101526
2023-03-05T03:13:00.686Z,101526
2023-03-05T03:14:00.455Z,101526
2023-03-05T03:15:00.554Z,101516
2023-03-05T03:16:01.339Z,101516
2023-03-05T03:17:00.516Z,101516
2023-03-05T03:18:00.447Z,101516
2023-03-05T03:19:00.437Z,101516
2023-03-05T03:20:00.678Z,101506
2023-03-05T03:21:01.188Z,101506
2023-03-05T03:22:00.676Z,101506
2023-03-05T03:23:00.536Z,101506
2023-03-05T03:24:00.465Z,101506
2023-03-05T03:25:00.714Z,101504
2023-03-05T03:26:00.606Z,101504
2023-03-05T03:27:00.698Z,101504
2023-03-05T03:28:00.479Z,101504
2023-03-05T03:29:00.595Z,101504
2023-03-05T03:30:00.472Z,101500
2023-03-05T03:31:00.503Z,101500
2023-03-05T03:32:00.757Z,101500
2023-03-05T03:33:00.472Z,101500
2023-03-05T03:34:00.424Z,101500
2023-03-05T03:35:00.611Z,101492
2023-03-05T03:36:00.547Z,101492
2023-03-05T03:37:00.536Z,101492
2023-03-05T03:38:00.459Z,101492
2023-03-05T03:39:00.503Z,101492
2023-03-05T03:40:00.451Z,101485
2023-03-05T03:41:00.480Z,101485
2023-03-05T03:42:00.455Z,101485
2023-03-05T03:43:00.561Z,101485
2023-03-05T03:44:00.621Z,101485
2023-03-05T03:45:00.515Z,101478
2023-03-05T03:46:02.583Z,101478
2023-03-05T03:47:00.454Z,101478
2023-03-05T03:48:00.455Z,101478
2023-03-05T03:49:00.747Z,101478
2023-03-05T03:50:00.507Z,101476
2023-03-05T03:51:03.036Z,101476
2023-03-05T03:52:02.598Z,101476
2023-03-05T03:53:00.500Z,101476
2023-03-05T03:54:00.741Z,101476
2023-03-05T03:55:00.463Z,101468
2023-03-05T03:56:00.486Z,101468
2023-03-05T03:57:00.460Z,101468
2023-03-05T03:58:00.428Z,101468
2023-03-05T03:59:00.508Z,101468
2023-03-05T04:00:00.674Z,101465
2023-03-05T04:01:00.463Z,101465
2023-03-05T04:02:00.438Z,101465
2023-03-05T04:03:00.449Z,101465
2023-03-05T04:04:00.507Z,101465
2023-03-05T04:05:00.446Z,101461
2023-03-05T04:06:00.421Z,101461
2023-03-05T04:07:00.476Z,101461
2023-03-05T04:08:00.470Z,101461
2023-03-05T04:09:00.485Z,101461
2023-03-05T04:10:00.492Z,101459
2023-03-05T04:11:00.922Z,101459
2023-03-05T04:12:00.426Z,101459
2023-03-05T04:13:00.451Z,101459
2023-03-05T04:14:00.441Z,101459
2023-03-05T04:15:00.440Z,101451
2023-03-05T04:16:00.681Z,101451
2023-03-05T04:17:00.578Z,101451
2023-03-05T04:18:00.457Z,101451
2023-03-05T04:19:00.459Z,101451
2023-03-05T04:20:00.548Z,101446
2023-03-05T04:21:00.452Z,101446
2023-03-05T04:22:00.472Z,101446
2023-03-05T04:23:00.492Z,101446
2023-03-05T04:24:00.434Z,101446
2023-03-05T04:25:00.431Z,101434
2023-03-05T04:26:00.441Z,101434
2023-03-05T04:27:00.463Z,101434
2023-03-05T04:28:00.446Z,101434
2023-03-05T04:29:00.463Z,101434
2023-03-05T04:30:00.564Z,101424
2023-03-05T04:31:00.501Z,101424
2023-03-05T04:32:00.584Z,101424
2023-03-05T04:33:00.494Z,101424
2023-03-05T04:34:00.537Z,101424
2023-03-05T04:35:00.438Z,101411
2023-03-05T04:36:00.441Z,101411
2023-03-05T04:37:00.468Z,101411
2023-03-05T04:38:00.458Z,101411
2023-03-05T04:39:00.414Z,101411
2023-03-05T04:40:00.500Z,101411
2023-03-05T04:41:00.440Z,101411
2023-03-05T04:42:00.432Z,101411
2023-03-05T04:43:00.496Z,101411
2023-03-05T04:44:00.554Z,101411
2023-03-05T04:45:00.451Z,101400
2023-03-05T04:46:00.424Z,101400
2023-03-05T04:47:00.419Z,101400
2023-03-05T04:48:00.485Z,101400
2023-03-05T04:49:00.506Z,101400
2023-03-05T04:50:00.415Z,101402
2023-03-05T04:51:00.439Z,101402
2023-03-05T04:52:00.412Z,101402
2023-03-05T04:53:00.632Z,101402
2023-03-05T04:54:00.433Z,101402
2023-03-05T04:55:00.461Z,101392
2023-03-05T04:56:00.514Z,101392
2023-03-05T04:57:00.413Z,101392
2023-03-05T04:58:00.435Z,101392
2023-03-05T04:59:00.437Z,101392
2023-03-05T05:00:00.544Z,101390
2023-03-05T05:01:01.036Z,101390
2023-03-05T05:02:00.505Z,101390
2023-03-05T05:03:00.465Z,101390
2023-03-05T05:04:00.616Z,101390
2023-03-05T05:06:00.721Z,101387
2023-03-05T05:07:00.822Z,101387
2023-03-05T05:08:00.433Z,101387
2023-03-05T05:09:00.448Z,101387
2023-03-05T05:10:00.435Z,101385
2023-03-05T05:11:01.932Z,101385
2023-03-05T05:12:00.440Z,101385
2023-03-05T05:13:00.434Z,101385
2023-03-05T05:14:00.460Z,101385
2023-03-05T05:15:00.570Z,101380
2023-03-05T05:16:00.631Z,101380
2023-03-05T05:17:00.695Z,101380
2023-03-05T05:18:00.468Z,101380
2023-03-05T05:19:00.457Z,101380
2023-03-05T05:20:00.558Z,101374
2023-03-05T05:21:00.449Z,101374
2023-03-05T05:22:00.757Z,101374
2023-03-05T05:23:00.457Z,101374
2023-03-05T05:24:00.446Z,101374
2023-03-05T05:25:00.523Z,101369
2023-03-05T05:26:01.066Z,101369
2023-03-05T05:27:00.475Z,101369
2023-03-05T05:28:00.461Z,101369
2023-03-05T05:29:00.429Z,101369
2023-03-05T05:30:00.548Z,101365
2023-03-05T05:31:05.450Z,101365
2023-03-05T05:32:00.471Z,101365
2023-03-05T05:33:00.500Z,101365
2023-03-05T05:34:00.475Z,101365
2023-03-05T05:35:00.449Z,101354
2023-03-05T05:36:02.606Z,101354
2023-03-05T05:37:00.421Z,101354
2023-03-05T05:38:00.420Z,101354
2023-03-05T05:39:00.438Z,101354
2023-03-05T05:40:00.482Z,101348
2023-03-05T05:41:01.396Z,101348
2023-03-05T05:42:00.475Z,101348
2023-03-05T05:43:00.442Z,101348
2023-03-05T05:44:00.493Z,101348
2023-03-05T05:45:00.539Z,101344
2023-03-05T05:46:01.398Z,101344
2023-03-05T05:47:00.497Z,101344
2023-03-05T05:48:00.436Z,101344
2023-03-05T05:49:00.431Z,101344
2023-03-05T05:50:00.445Z,101336
2023-03-05T05:51:08.936Z,101336
2023-03-05T05:52:00.444Z,101336
2023-03-05T05:53:00.439Z,101336
2023-03-05T05:54:00.489Z,101336
2023-03-05T05:55:00.435Z,101329
2023-03-05T05:56:00.474Z,101329
2023-03-05T05:57:00.419Z,101329
2023-03-05T05:58:00.433Z,101329
2023-03-05T05:59:00.444Z,101329
2023-03-05T06:00:00.480Z,101324
2023-03-05T06:01:00.876Z,101324
2023-03-05T06:02:00.536Z,101324
2023-03-05T06:03:00.481Z,101324
2023-03-05T06:04:00.466Z,101324
2023-03-05T06:05:00.508Z,101322
2023-03-05T06:06:00.430Z,101322
2023-03-05T06:07:00.448Z,101322
2023-03-05T06:08:00.440Z,101322
2023-03-05T06:09:00.816Z,101322
2023-03-05T06:10:00.515Z,101313
2023-03-05T06:11:00.454Z,101313
2023-03-05T06:12:00.432Z,101313
2023-03-05T06:13:00.505Z,101313
2023-03-05T06:14:00.444Z,101313
2023-03-05T06:15:00.446Z,101309
2023-03-05T06:16:02.168Z,101309
2023-03-05T06:17:00.446Z,101309
2023-03-05T06:18:00.895Z,101309
2023-03-05T06:19:01.249Z,101309
2023-03-05T06:20:00.540Z,101307
2023-03-05T06:21:01.917Z,101307
2023-03-05T06:22:00.445Z,101307
2023-03-05T06:23:00.443Z,101307
2023-03-05T06:24:00.488Z,101307
2023-03-05T06:25:00.462Z,101301
2023-03-05T06:26:02.062Z,101301
2023-03-05T06:27:00.475Z,101301
2023-03-05T06:28:00.424Z,101301
2023-03-05T06:29:00.458Z,101301
2023-03-05T06:30:00.507Z,101307
2023-03-05T06:31:01.598Z,101307
2023-03-05T06:32:00.492Z,101307
2023-03-05T06:33:00.422Z,101307
2023-03-05T06:34:00.457Z,101307
2023-03-05T06:35:00.457Z,101304
2023-03-05T06:36:02.974Z,101304
2023-03-05T06:37:00.430Z,101304
2023-03-05T06:38:00.461Z,101304
2023-03-05T06:39:00.442Z,101304
2023-03-05T06:40:00.447Z,101299
2023-03-05T06:41:01.350Z,101299
2023-03-05T06:42:00.452Z,101299
2023-03-05T06:43:00.448Z,101299
2023-03-05T06:44:01.026Z,101299
2023-03-05T06:45:00.463Z,101306
2023-03-05T06:46:01.530Z,101306
2023-03-05T06:47:00.434Z,101306
2023-03-05T06:48:00.544Z,101306
2023-03-05T06:49:01.395Z,101306
2023-03-05T06:50:00.439Z,101296
2023-03-05T06:51:00.441Z,101296
2023-03-05T06:52:00.436Z,101296
2023-03-05T06:53:00.675Z,101296
2023-03-05T06:54:01.841Z,101296
2023-03-05T06:55:00.434Z,101292
2023-03-05T06:56:00.519Z,101292
2023-03-05T06:57:00.673Z,101292
2023-03-05T06:58:00.422Z,101292
2023-03-05T06:59:00.429Z,101292
2023-03-05T07:00:00.424Z,101286
2023-03-05T07:01:00.669Z,101286
2023-03-05T07:02:00.643Z,101286
2023-03-05T07:03:00.790Z,101286
2023-03-05T07:04:00.706Z,101286
2023-03-05T07:05:00.424Z,101289
2023-03-05T07:06:03.951Z,101289
2023-03-05T07:07:00.430Z,101289
2023-03-05T07:08:00.442Z,101289
2023-03-05T07:09:01.637Z,101289
2023-03-05T07:10:00.499Z,101294
2023-03-05T07:11:00.826Z,101294
2023-03-05T07:12:00.424Z,101294
2023-03-05T07:13:00.491Z,101294
2023-03-05T07:14:00.550Z,101294
2023-03-05T07:15:00.562Z,101288
2023-03-05T07:16:03.763Z,101288
2023-03-05T07:17:00.428Z,101288
2023-03-05T07:18:00.422Z,101288
2023-03-05T07:19:02.235Z,101288
2023-03-05T07:20:00.444Z,101287
2023-03-05T07:21:01.570Z,101287
2023-03-05T07:22:00.483Z,101287
2023-03-05T07:23:00.478Z,101287
2023-03-05T07:24:01.666Z,101287
2023-03-05T07:25:00.431Z,101288
2023-03-05T07:26:00.948Z,101288
2023-03-05T07:27:00.461Z,101288
2023-03-05T07:28:00.445Z,101288
2023-03-05T07:29:00.500Z,101288
2023-03-05T07:30:00.457Z,101290
2023-03-05T07:31:02.286Z,101290
2023-03-05T07:32:00.499Z,101290
2023-03-05T07:33:00.443Z,101290
2023-03-05T07:34:01.386Z,101290
2023-03-05T07:35:00.457Z,101290
2023-03-05T07:36:00.508Z,101290
2023-03-05T07:37:00.480Z,101290
2023-03-05T07:38:00.422Z,101290
2023-03-05T07:39:00.569Z,101290
2023-03-05T07:40:00.446Z,101282
2023-03-05T07:41:02.691Z,101282
2023-03-05T07:42:00.441Z,101282
2023-03-05T07:43:00.445Z,101282
2023-03-05T07:44:00.459Z,101282
2023-03-05T07:45:00.451Z,101281
2023-03-05T07:46:03.323Z,101281
2023-03-05T07:47:00.457Z,101281
2023-03-05T07:48:00.548Z,101281
2023-03-05T07:49:00.635Z,101281
2023-03-05T07:50:00.645Z,101273
2023-03-05T07:51:01.781Z,101273
2023-03-05T07:52:00.454Z,101273
2023-03-05T07:53:00.468Z,101273
2023-03-05T07:54:00.482Z,101273
2023-03-05T07:55:00.484Z,101263
2023-03-05T07:56:00.491Z,101263
2023-03-05T07:57:00.432Z,101263
2023-03-05T07:58:00.439Z,101263
2023-03-05T07:59:02.188Z,101263
2023-03-05T08:00:00.484Z,101262
2023-03-05T08:01:00.532Z,101262
2023-03-05T08:02:00.758Z,101262
2023-03-05T08:03:00.455Z,101262
2023-03-05T08:04:00.943Z,101262
2023-03-05T08:05:00.446Z,101263
2023-03-05T08:06:03.864Z,101263
2023-03-05T08:07:00.434Z,101263
2023-03-05T08:08:00.532Z,101263
2023-03-05T08:09:00.464Z,101263
2023-03-05T08:10:00.503Z,101269
2023-03-05T08:11:09.228Z,101269
2023-03-05T08:12:00.460Z,101269
2023-03-05T08:13:00.488Z,101269
2023-03-05T08:14:00.435Z,101269
2023-03-05T08:15:00.442Z,101270
2023-03-05T08:16:10.186Z,101270
2023-03-05T08:17:00.468Z,101270
2023-03-05T08:18:00.437Z,101270
2023-03-05T08:19:00.580Z,101270
2023-03-05T08:20:00.465Z,101254
2023-03-05T08:21:00.558Z,101254
2023-03-05T08:22:00.450Z,101254
2023-03-05T08:23:00.440Z,101254
2023-03-05T08:24:01.652Z,101254
2023-03-05T08:25:00.504Z,101249
2023-03-05T08:26:00.443Z,101249
2023-03-05T08:27:00.480Z,101249
2023-03-05T08:28:00.583Z,101249
2023-03-05T08:29:00.818Z,101249
2023-03-05T08:30:00.610Z,101251
2023-03-05T08:31:00.517Z,101251
2023-03-05T08:32:00.522Z,101251
2023-03-05T08:33:00.468Z,101251
2023-03-05T08:34:01.299Z,101251
2023-03-05T08:35:00.487Z,101241
2023-03-05T08:36:00.500Z,101241
2023-03-05T08:37:00.441Z,101241
2023-03-05T08:38:00.482Z,101241
2023-03-05T08:39:00.452Z,101241
2023-03-05T08:40:00.532Z,101233
2023-03-05T08:41:00.926Z,101233
2023-03-05T08:42:00.557Z,101233
2023-03-05T08:43:00.579Z,101233
2023-03-05T08:44:00.514Z,101233
2023-03-05T08:45:00.441Z,101241
2023-03-05T08:46:00.813Z,101241
2023-03-05T08:47:00.518Z,101241
2023-03-05T08:48:00.458Z,101241
2023-03-05T08:49:00.481Z,101241
2023-03-05T08:50:00.511Z,101237
2023-03-05T08:51:08.917Z,101237
2023-03-05T08:52:00.559Z,101237
2023-03-05T08:53:00.452Z,101237
2023-03-05T08:54:00.449Z,101237
2023-03-05T08:55:00.448Z,101228
2023-03-05T08:56:00.474Z,101228
2023-03-05T08:57:00.467Z,101228
2023-03-05T08:58:00.460Z,101228
2023-03-05T08:59:01.032Z,101228
2023-03-05T09:00:00.525Z,101229
2023-03-05T09:01:01.427Z,101229
2023-03-05T09:02:01.199Z,101229
2023-03-05T09:03:00.505Z,101229
2023-03-05T09:04:00.574Z,101229
2023-03-05T09:05:00.474Z,101214
2023-03-05T09:06:01.569Z,101214
2023-03-05T09:07:00.449Z,101214
2023-03-05T09:08:00.486Z,101214
2023-03-05T09:09:00.440Z,101214
2023-03-05T09:10:00.515Z,101209
2023-03-05T09:11:01.487Z,101209
2023-03-05T09:12:01.007Z,101209
2023-03-05T09:13:00.475Z,101209
2023-03-05T09:14:01.583Z,101209
2023-03-05T09:15:00.460Z,101210
2023-03-05T09:16:02.010Z,101210
2023-03-05T09:17:00.956Z,101210
2023-03-05T09:18:00.450Z,101210
2023-03-05T09:19:00.473Z,101210
2023-03-05T09:20:00.592Z,101203
2023-03-05T09:21:03.415Z,101203
2023-03-05T09:22:00.570Z,101203
2023-03-05T09:23:00.552Z,101203
2023-03-05T09:24:00.446Z,101203
2023-03-05T09:25:00.492Z,101188
2023-03-05T09:26:00.579Z,101188
2023-03-05T09:27:00.510Z,101188
2023-03-05T09:28:00.437Z,101188
2023-03-05T09:29:00.539Z,101188
2023-03-05T09:30:00.549Z,101191
2023-03-05T09:31:01.043Z,101191
2023-03-05T09:32:00.645Z,101191
2023-03-05T09:33:01.264Z,101191
2023-03-05T09:34:00.488Z,101191
2023-03-05T09:35:00.440Z,101184
2023-03-05T09:36:00.938Z,101184
2023-03-05T09:37:00.776Z,101184
2023-03-05T09:38:00.748Z,101184
2023-03-05T09:39:00.625Z,101184
2023-03-05T09:40:00.736Z,101181
2023-03-05T09:41:03.953Z,101181
2023-03-05T09:42:01.450Z,101181
2023-03-05T09:43:04.447Z,101181
2023-03-05T09:44:00.463Z,101181
2023-03-05T09:45:04.203Z,101169
2023-03-05T09:46:01.517Z,101169
2023-03-05T09:47:10.512Z,101169
2023-03-05T09:48:00.425Z,101169
2023-03-05T09:49:10.359Z,101171
2023-03-05T09:50:02.361Z,101171
2023-03-05T09:51:02.435Z,101171
2023-03-05T09:52:10.352Z,101171
2023-03-05T09:53:10.363Z,101171
2023-03-05T09:54:04.535Z,101171
2023-03-05T09:55:00.995Z,101162
2023-03-05T09:56:08.550Z,101162
2023-03-05T09:57:02.318Z,101162
2023-03-05T09:58:04.464Z,101162
2023-03-05T09:59:08.587Z,101162
2023-03-05T10:00:02.209Z,101151
2023-03-05T10:01:03.176Z,101151
2023-03-05T10:02:04.244Z,101151
2023-03-05T10:03:04.512Z,101151
2023-03-05T10:04:04.815Z,101151
2023-03-05T10:05:10.353Z,101142
2023-03-05T10:06:10.376Z,101142
2023-03-05T10:07:01.427Z,101142
2023-03-05T10:08:02.333Z,101142
2023-03-05T10:09:01.462Z,101142
2023-03-05T10:10:04.096Z,101127
2023-03-05T10:11:04.741Z,101127
2023-03-05T10:12:10.349Z,101127
2023-03-05T10:13:04.676Z,101127
2023-03-05T10:14:00.921Z,101127
2023-03-05T10:15:00.742Z,101123
2023-03-05T10:16:10.379Z,101123
2023-03-05T10:17:03.742Z,101123
2023-03-05T10:18:10.352Z,101123
2023-03-05T10:19:05.948Z,101123
2023-03-05T10:20:00.426Z,101130
2023-03-05T10:21:02.615Z,101130
2023-03-05T10:22:03.756Z,101130
2023-03-05T10:23:04.253Z,101130
2023-03-05T10:24:00.454Z,101130
2023-03-05T10:25:01.455Z,101117
2023-03-05T10:26:10.353Z,101117
2023-03-05T10:27:06.798Z,101117
2023-03-05T10:28:03.639Z,101117
2023-03-05T10:29:07.116Z,101117
2023-03-05T10:30:10.380Z,101099
2023-03-05T10:31:07.745Z,101099
2023-03-05T10:32:03.875Z,101099
2023-03-05T10:33:01.438Z,101099
2023-03-05T10:34:10.353Z,101098
2023-03-05T10:35:03.701Z,101098
2023-03-05T10:36:07.847Z,101098
2023-03-05T10:37:10.346Z,101098
2023-03-05T10:38:07.822Z,101098
2023-03-05T10:39:10.352Z,101093
2023-03-05T10:40:07.977Z,101093
2023-03-05T10:41:06.652Z,101093
2023-03-05T10:42:00.476Z,101093
2023-03-05T10:43:10.361Z,101093
2023-03-05T10:44:05.197Z,101093
2023-03-05T10:45:07.392Z,101086
2023-03-05T10:46:02.285Z,101086
2023-03-05T10:47:01.657Z,101086
2023-03-05T10:48:01.485Z,101086
2023-03-05T10:49:05.216Z,101086
2023-03-05T10:50:00.577Z,101081
2023-03-05T10:51:09.197Z,101081
2023-03-05T10:52:10.366Z,101081
2023-03-05T10:53:06.348Z,101081
2023-03-05T10:54:08.034Z,101081
2023-03-05T10:55:01.094Z,101075
2023-03-05T10:56:01.782Z,101075
2023-03-05T10:57:10.351Z,101075
2023-03-05T10:58:09.040Z,101075
2023-03-05T10:59:00.505Z,101075
2023-03-05T11:00:00.521Z,101066
2023-03-05T11:01:10.546Z,101066
2023-03-05T11:02:01.784Z,101066
2023-03-05T11:03:01.506Z,101066
2023-03-05T11:04:02.535Z,101066
2023-03-05T11:05:00.594Z,101065
2023-03-05T11:06:01.478Z,101065
2023-03-05T11:07:04.609Z,101065
2023-03-05T11:08:10.419Z,101065
2023-03-05T11:09:10.442Z,101047
2023-03-05T11:10:10.422Z,101047
2023-03-05T11:11:10.413Z,101047
2023-03-05T11:12:02.558Z,101047
2023-03-05T11:13:00.439Z,101047
2023-03-05T11:14:01.211Z,101047
2023-03-05T11:15:03.173Z,101042
2023-03-05T11:16:02.020Z,101042
2023-03-05T11:17:01.352Z,101042
2023-03-05T11:18:10.348Z,101042
2023-03-05T11:19:10.344Z,101034
2023-03-05T11:20:10.342Z,101034
2023-03-05T11:21:06.460Z,101034
2023-03-05T11:22:03.707Z,101034
2023-03-05T11:23:01.474Z,101034
2023-03-05T11:24:10.354Z,101027
2023-03-05T11:25:10.348Z,101027
2023-03-05T11:26:00.432Z,101027
2023-03-05T11:27:00.442Z,101027
2023-03-05T11:28:01.069Z,101027
2023-03-05T11:29:01.883Z,101027
2023-03-05T11:30:00.719Z,101027
2023-03-05T11:31:00.504Z,101027
2023-03-05T11:32:10.409Z,101027
2023-03-05T11:33:10.735Z,101027
2023-03-05T11:34:03.302Z,101027
2023-03-05T11:35:00.586Z,101010
2023-03-05T11:36:10.342Z,101010
2023-03-05T11:37:01.925Z,101010
2023-03-05T11:38:02.121Z,101010
2023-03-05T11:39:07.905Z,101010
2023-03-05T11:40:10.345Z,101000
2023-03-05T11:41:00.438Z,101000
2023-03-05T11:42:03.778Z,101000
2023-03-05T11:43:00.766Z,101000
2023-03-05T11:44:02.056Z,101000
2023-03-05T11:45:01.824Z,100991
2023-03-05T11:46:02.215Z,100991
2023-03-05T11:47:08.482Z,100991
2023-03-05T11:48:04.033Z,100991
2023-03-05T11:49:01.607Z,100991
2023-03-05T11:50:04.632Z,100977
2023-03-05T11:51:01.561Z,100977
2023-03-05T11:52:10.333Z,100977
2023-03-05T11:53:05.537Z,100977
2023-03-05T11:54:04.145Z,100977
2023-03-05T11:55:06.219Z,100963
2023-03-05T11:56:05.634Z,100963
2023-03-05T11:57:01.426Z,100963
2023-03-05T11:58:10.336Z,100963
2023-03-05T11:59:10.342Z,100961
2023-03-05T12:00:04.194Z,100961
2023-03-05T12:01:00.574Z,100961
2023-03-05T12:02:00.461Z,100961
2023-03-05T12:03:06.305Z,100961
2023-03-05T12:04:01.009Z,100961
2023-03-05T12:05:00.445Z,100960
2023-03-05T12:06:08.826Z,100960
2023-03-05T12:07:01.669Z,100960
2023-03-05T12:08:01.291Z,100960
2023-03-05T12:09:06.319Z,100960
2023-03-05T12:10:00.921Z,100954
2023-03-05T12:11:04.724Z,100954
2023-03-05T12:12:05.991Z,100954
2023-03-05T12:13:10.336Z,100954
2023-03-05T12:14:00.408Z,100954
2023-03-05T12:15:10.363Z,100954
2023-03-05T12:16:07.147Z,100954
2023-03-05T12:17:10.355Z,100954
2023-03-05T12:18:10.350Z,100954
2023-03-05T12:19:10.347Z,100945
2023-03-05T12:20:05.490Z,100945
2023-03-05T12:21:10.354Z,100945
2023-03-05T12:22:00.764Z,100945
2023-03-05T12:23:00.452Z,100945
2023-03-05T12:24:02.157Z,100945
2023-03-05T12:25:10.352Z,100927
2023-03-05T12:26:00.428Z,100927
2023-03-05T12:27:00.421Z,100927
2023-03-05T12:28:00.983Z,100927
2023-03-05T12:29:00.458Z,100927